• Join FlightAware (Why Join?)
  • Login
  • US Flag 
09:44AM EDT


 

Airport Tracker/Info


-or-


 

Live Flight TrackerFlight Track Log ✈ C-GTNG ✈ 09-Jun-2013 ✈ CYVK / YVE - CYBW

Flight Track Log - Related Links

Times and Time Zones

All times are in EDT time to prevent confusion due to time zone crossing. See the C-GTNG flight status page for this flight to view local times or setup timezone preferences in your user account.

Time Position Orientation Groundspeed Altitude Reporting Facility
EDT Latitude Longitude Course Direction KTS MPH feet Rate Location/Type
08:35PM 50.1833 -118.9667 103° East 270 311 12,600  Level Vancouver Center
08:36PM 50.1667 -118.8500 103° East 280 322 13,600 1,380 Climbing Vancouver Center
08:37PM 50.1667 -118.7333 90° East 250 288 15,500 1,500 Climbing Vancouver Center
08:38PM 50.1333 -118.7167 162° South 250 288 16,300 1,800 Climbing Edmonton Center
08:39PM 50.1500 -118.6167 75° East 250 288 18,700 1,740 Climbing Edmonton Center
08:40PM 50.1667 -118.5000 77° East 250 288 19,800 1,200 Climbing Edmonton Center
08:41PM 50.1667 -118.3833 90° East 270 311 21,100 1,500 Climbing Edmonton Center
08:42PM 50.1667 -118.2500 90° East 280 322 22,800 1,500 Climbing Edmonton Center
08:43PM 50.1833 -118.1500 75° East 280 322 24,200 960 Climbing Edmonton Center
08:44PM 50.2167 -117.9500 75° East 300 345 25,000 300 Climbing Vancouver Center
08:45PM 50.2500 -117.7833 73° East 340 391 25,000  Level Vancouver Center
08:46PM 50.2667 -117.6333 80° East 380 437 25,000  Level Vancouver Center
08:47PM 50.3000 -117.4667 73° East 390 449 25,000  Level Vancouver Center
08:48PM 50.3000 -117.2833 90° East 400 460 25,000  Level Vancouver Center
08:49PM 50.3500 -117.1167 65° Northeast 400 460 25,000  Level Vancouver Center
08:50PM 50.3833 -116.9500 73° East 400 460 25,000  Level Vancouver Center
08:51PM 50.3833 -116.8833 90° East 400 460 25,000  Level Edmonton Center
08:52PM 50.4000 -116.7167 81° East 410 472 25,000  Level Edmonton Center
08:53PM 50.4333 -116.4167 80° East 420 483 25,000  Level Vancouver Center
08:54PM 50.4500 -116.3500 69° East 400 460 25,000  Level Edmonton Center
08:55PM 50.4833 -116.2000 71° East 400 460 25,000  Level Edmonton Center
08:56PM 50.5167 -116.0333 72° East 390 449 25,000  Level Edmonton Center
08:57PM 50.5667 -115.8833 62° Northeast 390 449 25,000  Level Edmonton Center
08:58PM 50.6000 -115.7167 72° East 390 449 25,000  Level Edmonton Center
08:59PM 50.6500 -115.5500 65° Northeast 390 449 25,000  Level Edmonton Center
09:00PM 50.6833 -115.4000 71° East 390 449 25,000 -780 Level Edmonton Center
09:01PM 50.7167 -115.2167 74° East 390 449 23,500 -1,560 Descending Edmonton Center
09:02PM 50.7333 -115.0833 79° East 380 437 21,900 -1,980 Descending Edmonton Center
09:03PM 50.7833 -114.9333 62° Northeast 340 391 19,600 -2,400 Descending Edmonton Center
09:04PM 50.8333 -114.8167 56° Northeast 320 368 17,100 -2,100 Descending Edmonton Center
09:05PM 50.8500 -114.7167 75° East 300 345 15,500 -2,220 Descending Edmonton Center
09:06PM 50.8667 -114.5500 81° East 290 334 12,700 -2,640 Descending Edmonton Center
09:07PM 50.8500 -114.4333 103° East 280 322 10,300 -2,100 Descending Edmonton Center
09:08PM 50.8833 -114.3667 52° Northeast 220 253 8,500 -1,740 Descending Edmonton Center
09:09PM 50.9333 -114.3833 348° North 200 230 6,900 -1,320 Descending Edmonton Center
09:10PM 50.9667 -114.3833 360° North 160 184 5,900 -1,080 Descending Edmonton Center
09:11PM 51.0167 -114.4000 348° North 120 138 4,800 -720 Descending Edmonton Center
09:12PM 51.0333 -114.4000 360° North 100 115 4,500 -300 Descending Edmonton Center